Terminal Aerodrome Forecast
Issued by NWS Binghamton, NY

Home | Current Version | Previous Version | Text Only | Print | Product List | Glossary On
Versions: 1 2 3 4 5 6 7 8 9 10 11 12 13 14 15 16 17
000
FTUS41 KBGM 281100
TAFBGM
TAF
KBGM 281120Z 2812/2912 26007KT P6SM -SHRA SCT015 OVC025
      TEMPO 2812/2816 3SM -SHRA BR OVC015
     FM281600 30012G18KT 5SM -SHRA BR SCT008 OVC012
     FM290000 30010KT P6SM -SHRA OVC025
     FM290600 29007KT P6SM BKN035=

USA.gov is the U.S. government's official web portal to all federal, state and local government web resources and services.